createdAt,value
2018-04-18T00:00:11.715Z,52.90
2018-04-18T00:02:39.913Z,52.40
2018-04-18T00:05:08.304Z,52.30
2018-04-18T00:07:36.511Z,51.50
2018-04-18T00:10:04.746Z,52.00
2018-04-18T00:12:32.952Z,51.90
2018-04-18T00:15:01.159Z,51.40
2018-04-18T00:17:29.370Z,50.80
2018-04-18T00:19:57.574Z,51.60
2018-04-18T00:22:25.786Z,51.30
2018-04-18T00:24:53.989Z,51.30
2018-04-18T00:27:22.181Z,51.70
2018-04-18T00:29:51.154Z,51.10
2018-04-18T00:32:19.359Z,51.00
2018-04-18T00:34:47.579Z,51.80
2018-04-18T00:37:15.833Z,50.60
2018-04-18T00:39:43.994Z,50.40
2018-04-18T00:42:12.215Z,52.60
2018-04-18T00:44:40.425Z,56.40
2018-04-18T00:47:08.625Z,56.30
2018-04-18T00:49:36.831Z,53.70
2018-04-18T00:52:05.045Z,51.00
2018-04-18T00:54:33.247Z,49.40
2018-04-18T00:57:01.455Z,51.50
2018-04-18T00:59:29.677Z,51.40
2018-04-18T01:01:58.003Z,51.30
2018-04-18T01:04:26.238Z,51.30
2018-04-18T01:06:54.428Z,50.90
2018-04-18T01:09:22.651Z,50.90
2018-04-18T01:11:50.871Z,50.60
2018-04-18T01:14:19.066Z,50.90
2018-04-18T01:16:47.272Z,50.90
2018-04-18T01:19:15.486Z,50.80
2018-04-18T01:21:43.701Z,51.10
2018-04-18T01:24:11.920Z,51.20
2018-04-18T01:26:40.122Z,51.80
2018-04-18T01:29:08.312Z,50.30
2018-04-18T01:31:36.519Z,50.20
2018-04-18T01:34:04.724Z,50.60
2018-04-18T01:36:33.719Z,51.10
2018-04-18T01:39:01.939Z,50.80
2018-04-18T01:41:30.163Z,50.20
2018-04-18T01:43:58.372Z,50.00
2018-04-18T01:46:26.572Z,49.60
2018-04-18T01:49:07.135Z,49.90
2018-04-18T01:51:35.393Z,49.70
2018-04-18T01:54:03.595Z,49.80
2018-04-18T01:56:31.790Z,49.60
2018-04-18T01:59:00.119Z,49.80
2018-04-18T02:01:29.147Z,50.60
2018-04-18T02:03:58.127Z,50.70
2018-04-18T02:06:26.399Z,50.70
2018-04-18T02:08:54.608Z,52.20
2018-04-18T02:11:22.843Z,52.60
2018-04-18T02:13:51.063Z,53.50
2018-04-18T02:16:19.254Z,53.30
2018-04-18T02:18:47.456Z,53.00
2018-04-18T02:21:16.437Z,52.30
2018-04-18T02:23:44.640Z,52.20
2018-04-18T02:26:12.846Z,51.60
2018-04-18T02:28:41.058Z,51.80
2018-04-18T02:31:09.263Z,50.80
2018-04-18T02:33:37.479Z,50.90
2018-04-18T02:36:05.708Z,52.30
2018-04-18T02:38:33.971Z,52.10
2018-04-18T02:41:02.241Z,51.90
2018-04-18T02:43:31.243Z,50.60
2018-04-18T02:45:59.444Z,50.60
2018-04-18T02:48:27.649Z,50.60
2018-04-18T02:50:55.875Z,50.70
2018-04-18T02:53:24.069Z,50.30
2018-04-18T02:55:52.258Z,50.10
2018-04-18T02:58:20.464Z,50.80
2018-04-18T03:00:49.440Z,50.40
2018-04-18T03:03:17.660Z,50.40
2018-04-18T03:05:45.871Z,49.80
2018-04-18T03:08:14.084Z,51.40
2018-04-18T03:10:43.073Z,54.20
2018-04-18T03:13:11.271Z,54.20
2018-04-18T03:15:39.491Z,50.10
2018-04-18T03:18:07.707Z,51.90
2018-04-18T03:20:35.907Z,50.50
2018-04-18T03:23:04.139Z,50.90
2018-04-18T03:25:32.319Z,51.30
2018-04-18T03:28:00.524Z,51.50
2018-04-18T03:30:28.757Z,52.50
2018-04-18T03:32:56.979Z,53.90
2018-04-18T03:35:25.220Z,53.40
2018-04-18T03:37:53.423Z,51.70
2018-04-18T03:40:21.658Z,51.90
2018-04-18T03:42:49.851Z,51.30
2018-04-18T03:45:18.043Z,50.50
2018-04-18T03:47:46.268Z,50.90
2018-04-18T03:50:14.518Z,51.10
2018-04-18T03:52:42.683Z,51.30
2018-04-18T03:55:10.905Z,51.00
2018-04-18T03:57:39.147Z,50.60
2018-04-18T04:00:07.560Z,51.90
2018-04-18T04:02:35.910Z,51.50
2018-04-18T04:05:04.118Z,51.20
2018-04-18T04:07:32.310Z,51.00
2018-04-18T04:10:00.539Z,50.70
2018-04-18T04:12:28.740Z,51.90
2018-04-18T04:14:57.007Z,52.10
2018-04-18T04:17:36.932Z,58.00
2018-04-18T04:20:16.867Z,57.30
2018-04-18T04:22:56.821Z,59.00
2018-04-18T04:25:25.027Z,55.80
2018-04-18T04:27:53.297Z,53.00
2018-04-18T04:30:21.459Z,55.90
2018-04-18T04:32:50.479Z,54.60
2018-04-18T04:35:18.681Z,53.30
2018-04-18T04:37:46.882Z,55.70
2018-04-18T04:40:15.101Z,55.90
2018-04-18T04:42:43.318Z,53.60
2018-04-18T04:45:11.518Z,50.80
2018-04-18T04:47:40.495Z,51.00
2018-04-18T04:50:08.698Z,50.90
2018-04-18T04:52:36.927Z,49.90
2018-04-18T04:55:05.114Z,49.10
2018-04-18T04:57:33.416Z,48.80
2018-04-18T05:00:01.620Z,48.30
2018-04-18T05:02:29.824Z,48.20
2018-04-18T05:04:58.136Z,47.50
2018-04-18T05:07:26.311Z,47.80
2018-04-18T05:09:54.499Z,47.80
2018-04-18T05:12:22.699Z,47.60
2018-04-18T05:14:50.905Z,48.10
2018-04-18T05:17:19.126Z,47.50
2018-04-18T05:19:47.352Z,48.20
2018-04-18T05:22:15.530Z,48.50
2018-04-18T05:24:43.734Z,48.20
2018-04-18T05:27:11.948Z,47.90
2018-04-18T05:29:40.170Z,48.00
2018-04-18T05:32:09.175Z,49.30
2018-04-18T05:34:37.355Z,49.20
2018-04-18T05:37:05.580Z,50.10
2018-04-18T05:39:33.810Z,51.20
2018-04-18T05:42:02.064Z,50.50
2018-04-18T05:44:30.267Z,49.90
2018-04-18T05:46:58.479Z,51.80
2018-04-18T05:49:26.702Z,53.80
2018-04-18T05:51:54.910Z,51.90
2018-04-18T05:54:23.131Z,50.10
2018-04-18T05:56:51.327Z,49.30
2018-04-18T05:59:19.519Z,53.00
2018-04-18T06:01:47.723Z,52.70
2018-04-18T06:04:15.935Z,50.40
2018-04-18T06:06:44.146Z,47.60
2018-04-18T06:09:12.359Z,46.50
2018-04-18T06:11:41.332Z,48.10
2018-04-18T06:14:09.531Z,48.10
2018-04-18T06:16:37.779Z,47.50
2018-04-18T06:19:06.040Z,48.70
2018-04-18T06:21:34.204Z,48.80
2018-04-18T06:24:02.408Z,47.50
2018-04-18T06:26:30.847Z,47.90
2018-04-18T06:28:59.055Z,47.10
2018-04-18T06:31:27.265Z,45.90
2018-04-18T06:33:55.474Z,47.10
2018-04-18T06:36:23.690Z,46.60
2018-04-18T06:38:51.898Z,46.00
2018-04-18T06:41:20.128Z,47.70
2018-04-18T06:43:48.344Z,48.00
2018-04-18T06:46:16.536Z,49.00
2018-04-18T06:48:44.763Z,48.00
2018-04-18T06:51:17.451Z,51.70
2018-04-18T06:53:45.616Z,51.70
2018-04-18T06:56:13.835Z,50.40
2018-04-18T06:58:42.062Z,49.60
2018-04-18T07:01:10.283Z,49.00
2018-04-18T07:03:38.490Z,47.20
2018-04-18T07:06:07.463Z,46.00
2018-04-18T07:08:36.098Z,45.80
2018-04-18T07:11:04.410Z,45.40
2018-04-18T07:13:32.619Z,46.90
2018-04-18T07:16:00.823Z,46.70
2018-04-18T07:18:29.032Z,46.10
2018-04-18T07:20:57.258Z,45.80
2018-04-18T07:23:25.525Z,49.10
2018-04-18T07:25:54.526Z,47.00
2018-04-18T07:28:22.748Z,47.00
2018-04-18T07:30:50.965Z,47.20
2018-04-18T07:33:19.219Z,47.30
2018-04-18T07:35:47.431Z,47.20
2018-04-18T07:38:15.653Z,45.00
2018-04-18T07:40:43.869Z,45.70
2018-04-18T07:43:12.845Z,44.50
2018-04-18T07:45:41.097Z,44.50
2018-04-18T07:48:09.310Z,44.90
2018-04-18T07:50:37.556Z,44.70
2018-04-18T07:53:05.782Z,45.50
2018-04-18T07:55:33.986Z,45.60
2018-04-18T07:58:02.324Z,45.30
2018-04-18T08:00:30.564Z,45.60
2018-04-18T08:02:59.550Z,45.50
2018-04-18T08:05:27.771Z,45.40
2018-04-18T08:07:55.996Z,44.80
2018-04-18T08:10:24.204Z,44.80
2018-04-18T08:12:52.495Z,44.70
2018-04-18T08:15:20.738Z,45.20
2018-04-18T08:17:48.919Z,44.60
2018-04-18T08:20:34.025Z,44.20
2018-04-18T08:23:02.272Z,44.00
2018-04-18T08:25:31.187Z,44.10
2018-04-18T08:27:59.398Z,44.00
2018-04-18T08:30:27.619Z,44.10
2018-04-18T08:32:55.823Z,44.20
2018-04-18T08:35:24.043Z,43.40
2018-04-18T08:37:52.256Z,43.20
2018-04-18T08:40:20.457Z,43.20
2018-04-18T08:42:48.672Z,43.60
2018-04-18T08:45:16.874Z,43.40
2018-04-18T08:47:45.094Z,42.50
2018-04-18T08:50:13.307Z,43.20
2018-04-18T08:52:41.531Z,44.10
2018-04-18T08:55:09.709Z,43.20
2018-04-18T08:57:37.918Z,43.10
2018-04-18T09:00:06.132Z,41.70
2018-04-18T09:02:34.354Z,42.50
2018-04-18T09:05:02.561Z,43.10
2018-04-18T09:07:30.765Z,42.60
2018-04-18T09:09:58.994Z,41.50
2018-04-18T09:12:27.255Z,41.30
2018-04-18T09:14:55.466Z,42.20
2018-04-18T09:17:23.704Z,42.20
2018-04-18T09:19:51.940Z,41.30
2018-04-18T09:22:20.143Z,40.80
2018-04-18T09:24:48.408Z,40.80
2018-04-18T09:27:16.611Z,41.80
2018-04-18T09:29:44.815Z,41.20
2018-04-18T09:32:13.028Z,39.90
2018-04-18T09:34:41.251Z,41.20
2018-04-18T09:37:09.462Z,39.50
2018-04-18T09:39:37.669Z,40.20
2018-04-18T09:42:05.894Z,39.90
2018-04-18T09:44:34.103Z,38.40
2018-04-18T09:47:02.311Z,39.50
2018-04-18T09:49:30.526Z,41.10
2018-04-18T09:51:59.525Z,39.80
2018-04-18T09:54:28.483Z,40.90
2018-04-18T09:56:56.708Z,40.70
2018-04-18T09:59:25.698Z,38.60
2018-04-18T10:01:53.938Z,38.80
2018-04-18T10:04:27.918Z,38.50
2018-04-18T10:06:56.138Z,38.50
2018-04-18T10:09:24.351Z,39.40
2018-04-18T10:11:52.578Z,40.30
2018-04-18T10:14:20.782Z,38.90
2018-04-18T10:16:48.976Z,39.00
2018-04-18T10:19:17.239Z,37.00
2018-04-18T10:21:45.447Z,37.90
2018-04-18T10:24:13.654Z,37.60
2018-04-18T10:26:42.638Z,37.70
2018-04-18T10:29:10.843Z,37.60
2018-04-18T10:31:39.108Z,38.90
2018-04-18T10:34:07.373Z,39.20
2018-04-18T10:36:36.368Z,36.90
2018-04-18T10:39:04.551Z,36.80
2018-04-18T10:41:32.754Z,38.40
2018-04-18T10:44:00.996Z,37.40
2018-04-18T10:46:29.195Z,34.90
2018-04-18T10:48:57.403Z,37.50
2018-04-18T10:51:25.613Z,35.90
2018-04-18T10:53:54.580Z,37.10
2018-04-18T10:56:22.791Z,37.20
2018-04-18T10:58:51.007Z,36.20
2018-04-18T11:01:19.243Z,36.20
2018-04-18T11:03:47.492Z,39.30
2018-04-18T11:06:16.478Z,38.20
2018-04-18T11:08:44.694Z,38.20
2018-04-18T11:11:12.895Z,38.10
2018-04-18T11:13:41.095Z,35.30
2018-04-18T11:16:09.331Z,35.30
2018-04-18T11:18:37.543Z,35.90
2018-04-18T11:21:05.747Z,35.50
2018-04-18T11:23:33.942Z,33.20
2018-04-18T11:26:02.161Z,34.40
2018-04-18T11:28:30.374Z,35.20
2018-04-18T11:30:58.628Z,34.40
2018-04-18T11:33:26.813Z,34.70
2018-04-18T11:35:55.003Z,33.50
2018-04-18T11:38:23.215Z,33.50
2018-04-18T11:40:51.514Z,35.40
2018-04-18T11:43:19.750Z,33.00
2018-04-18T11:45:48.016Z,36.10
2018-04-18T11:48:16.207Z,33.80
2018-04-18T11:50:44.411Z,33.30
2018-04-18T11:53:13.435Z,31.40
2018-04-18T11:55:41.639Z,31.30
2018-04-18T11:58:09.878Z,34.30
2018-04-18T12:00:38.153Z,32.70
2018-04-18T12:03:06.392Z,35.40
2018-04-18T12:05:34.697Z,34.70
2018-04-18T12:08:02.931Z,33.70
2018-04-18T12:10:31.238Z,33.30
2018-04-18T12:12:59.463Z,32.90
2018-04-18T12:15:27.727Z,37.10
2018-04-18T12:17:55.957Z,34.90
2018-04-18T12:20:24.168Z,34.60
2018-04-18T12:22:52.434Z,35.70
2018-04-18T12:25:20.663Z,34.80
2018-04-18T12:27:48.886Z,34.90
2018-04-18T12:30:17.115Z,34.00
2018-04-18T12:32:46.083Z,32.70
2018-04-18T12:35:14.368Z,33.00
2018-04-18T12:37:42.607Z,36.10
2018-04-18T12:40:10.844Z,32.50
2018-04-18T12:42:39.043Z,32.30
2018-04-18T12:45:08.049Z,34.60
2018-04-18T12:47:36.240Z,34.40
2018-04-18T12:50:04.463Z,30.80
2018-04-18T12:52:32.665Z,33.10
2018-04-18T12:55:00.903Z,31.10
2018-04-18T12:57:29.117Z,31.40
2018-04-18T12:59:57.348Z,34.40
2018-04-18T13:02:25.553Z,35.00
2018-04-18T13:04:53.789Z,32.80
2018-04-18T13:07:22.027Z,34.70
2018-04-18T13:09:50.301Z,32.10
2018-04-18T13:12:18.501Z,31.80
2018-04-18T13:14:46.715Z,30.00
2018-04-18T13:17:14.960Z,32.80
2018-04-18T13:19:43.958Z,33.10
2018-04-18T13:22:12.232Z,32.90
2018-04-18T13:24:41.226Z,31.70
2018-04-18T13:27:09.490Z,31.70
2018-04-18T13:29:37.703Z,30.80
2018-04-18T13:32:05.950Z,31.80
2018-04-18T13:34:34.148Z,31.10
2018-04-18T13:37:02.374Z,33.50
2018-04-18T13:39:30.605Z,31.20
2018-04-18T13:41:58.845Z,28.40
2018-04-18T13:44:27.068Z,32.70
2018-04-18T13:46:55.266Z,31.90
2018-04-18T13:49:23.499Z,30.80
2018-04-18T13:51:51.863Z,33.90
2018-04-18T13:54:20.159Z,31.50
2018-04-18T13:56:48.417Z,30.20
2018-04-18T13:59:16.663Z,30.70
2018-04-18T14:01:45.641Z,36.10
2018-04-18T14:04:13.855Z,36.10
2018-04-18T14:06:42.056Z,33.90
2018-04-18T14:09:10.284Z,30.80
2018-04-18T14:11:38.556Z,32.90
2018-04-18T14:14:07.535Z,28.90
2018-04-18T14:16:35.758Z,29.00
2018-04-18T14:19:03.983Z,35.10
2018-04-18T14:21:32.408Z,34.60
2018-04-18T14:24:00.673Z,30.90
2018-04-18T14:26:28.918Z,28.70
2018-04-18T14:29:00.472Z,32.10
2018-04-18T14:31:28.663Z,36.50
2018-04-18T14:33:56.912Z,33.60
2018-04-18T14:36:25.112Z,30.40
2018-04-18T14:38:53.320Z,30.50
2018-04-18T14:41:21.534Z,32.00
2018-04-18T14:43:50.511Z,30.50
2018-04-18T14:46:18.743Z,30.20
2018-04-18T14:48:46.950Z,34.30
2018-04-18T14:51:15.156Z,32.90
2018-04-18T14:53:44.190Z,30.70
2018-04-18T14:56:12.419Z,30.60
2018-04-18T14:58:40.630Z,31.20
2018-04-18T15:01:08.883Z,32.00
2018-04-18T15:03:37.084Z,33.20
2018-04-18T15:06:05.307Z,32.40
2018-04-18T15:08:34.287Z,32.40
2018-04-18T15:11:02.511Z,32.30
2018-04-18T15:13:30.728Z,33.40
2018-04-18T15:15:58.960Z,33.20
2018-04-18T15:18:27.216Z,33.80
2018-04-18T15:20:56.211Z,33.80
2018-04-18T15:23:24.664Z,33.80
2018-04-18T15:25:52.879Z,33.20
2018-04-18T15:28:21.097Z,35.40
2018-04-18T15:30:49.309Z,34.80
2018-04-18T15:33:17.586Z,33.70
2018-04-18T15:35:46.570Z,32.50
2018-04-18T15:38:14.787Z,32.40
2018-04-18T15:40:43.017Z,32.80
2018-04-18T15:43:11.223Z,34.70
2018-04-18T15:45:39.469Z,34.30
2018-04-18T15:48:07.683Z,34.10
2018-04-18T15:50:35.899Z,32.70
2018-04-18T15:53:04.116Z,33.30
2018-04-18T15:55:32.327Z,32.60
2018-04-18T15:58:00.570Z,33.10
2018-04-18T16:00:28.778Z,34.80
2018-04-18T16:02:56.996Z,33.20
2018-04-18T16:05:25.214Z,32.20
2018-04-18T16:07:53.435Z,31.80
2018-04-18T16:10:21.652Z,32.40
2018-04-18T16:12:49.868Z,33.00
2018-04-18T16:15:18.847Z,32.30
2018-04-18T16:17:47.054Z,32.20
2018-04-18T16:20:15.288Z,31.60
2018-04-18T16:22:43.480Z,32.10
2018-04-18T16:25:12.471Z,34.70
2018-04-18T16:27:40.672Z,35.20
2018-04-18T16:30:20.556Z,35.60
2018-04-18T16:32:48.792Z,33.00
2018-04-18T16:35:16.987Z,33.00
2018-04-18T16:37:45.222Z,32.30
2018-04-18T16:40:13.467Z,32.40
2018-04-18T16:42:41.668Z,33.50
2018-04-18T16:45:09.955Z,32.90
2018-04-18T16:47:38.945Z,34.20
2018-04-18T16:50:07.918Z,35.00
2018-04-18T16:52:36.139Z,35.10
2018-04-18T16:55:04.344Z,36.00
2018-04-18T16:57:32.562Z,35.00
2018-04-18T17:00:00.767Z,36.20
2018-04-18T17:02:29.770Z,33.70
2018-04-18T17:04:57.951Z,33.60
2018-04-18T17:07:26.160Z,35.70
2018-04-18T17:09:54.360Z,36.10
2018-04-18T17:12:22.565Z,36.40
2018-04-18T17:14:50.786Z,36.30
2018-04-18T17:17:19.750Z,33.60
2018-04-18T17:19:47.977Z,33.60
2018-04-18T17:22:16.168Z,34.90
2018-04-18T17:24:44.366Z,35.90
2018-04-18T17:27:12.583Z,35.90
2018-04-18T17:29:40.792Z,33.90
2018-04-18T17:32:09.004Z,35.40
2018-04-18T17:34:37.199Z,35.10
2018-04-18T17:37:05.399Z,35.40
2018-04-18T17:39:33.596Z,34.80
2018-04-18T17:42:01.851Z,35.10
2018-04-18T17:44:30.059Z,34.80
2018-04-18T17:46:58.267Z,34.10
2018-04-18T17:49:26.483Z,34.40
2018-04-18T17:51:54.795Z,34.20
2018-04-18T17:54:23.033Z,34.00
2018-04-18T17:56:51.213Z,35.80
2018-04-18T17:59:19.431Z,35.40
2018-04-18T18:01:48.415Z,36.80
2018-04-18T18:04:17.415Z,36.70
2018-04-18T18:06:46.378Z,36.10
2018-04-18T18:09:14.595Z,36.10
2018-04-18T18:11:42.790Z,37.70
2018-04-18T18:14:11.028Z,36.20
2018-04-18T18:16:39.266Z,38.60
2018-04-18T18:19:08.480Z,40.50
2018-04-18T18:21:36.729Z,41.00
2018-04-18T18:24:05.757Z,42.40
2018-04-18T18:26:34.371Z,43.30
2018-04-18T18:29:02.595Z,40.60
2018-04-18T18:31:30.882Z,50.20
2018-04-18T18:33:59.041Z,49.60
2018-04-18T18:36:27.250Z,49.50
2018-04-18T18:38:55.487Z,48.80
2018-04-18T18:41:23.761Z,44.40
2018-04-18T18:43:51.977Z,50.10
2018-04-18T18:46:20.191Z,51.80
2018-04-18T18:48:48.422Z,51.40
2018-04-18T18:51:16.633Z,51.10
2018-04-18T18:53:44.883Z,50.90
2018-04-18T18:56:13.100Z,50.80
2018-04-18T18:58:41.303Z,50.80
2018-04-18T19:01:11.112Z,50.70
2018-04-18T19:03:39.315Z,50.60
2018-04-18T19:06:07.566Z,50.90
2018-04-18T19:08:35.787Z,50.90
2018-04-18T19:11:04.008Z,50.70
2018-04-18T19:13:32.263Z,50.70
2018-04-18T19:16:00.487Z,51.10
2018-04-18T19:18:28.719Z,51.10
2018-04-18T19:20:57.009Z,50.90
2018-04-18T19:23:25.270Z,50.60
2018-04-18T19:25:53.458Z,50.70
2018-04-18T19:28:21.772Z,49.50
2018-04-18T19:30:49.987Z,49.80
2018-04-18T19:33:18.425Z,49.50
2018-04-18T19:35:46.678Z,49.70
2018-04-18T19:38:14.884Z,49.70
2018-04-18T19:40:43.103Z,50.00
2018-04-18T19:43:11.314Z,50.40
2018-04-18T19:45:39.539Z,50.90
2018-04-18T19:48:07.762Z,50.90
2018-04-18T19:50:35.987Z,50.60
2018-04-18T19:53:04.212Z,50.80
2018-04-18T19:55:32.436Z,50.70
2018-04-18T19:58:00.649Z,51.00
2018-04-18T20:00:28.851Z,50.70
2018-04-18T20:02:57.073Z,50.60
2018-04-18T20:05:26.095Z,50.80
2018-04-18T20:07:54.355Z,50.70
2018-04-18T20:10:22.559Z,50.40
2018-04-18T20:12:50.798Z,50.40
2018-04-18T20:15:19.008Z,50.40
2018-04-18T20:17:47.231Z,50.40
2018-04-18T20:20:15.448Z,50.10
2018-04-18T20:22:43.652Z,50.20
2018-04-18T20:25:11.879Z,50.50
2018-04-18T20:27:40.095Z,49.90
2018-04-18T20:30:08.299Z,50.80
2018-04-18T20:32:36.527Z,50.70
2018-04-18T20:35:04.747Z,49.90
2018-04-18T20:37:32.946Z,50.50
2018-04-18T20:40:01.149Z,50.20
2018-04-18T20:42:29.363Z,50.30
2018-04-18T20:44:57.571Z,50.00
2018-04-18T20:47:25.839Z,50.70
2018-04-18T20:49:54.028Z,50.10
2018-04-18T20:52:22.215Z,50.60
2018-04-18T20:54:50.461Z,50.30
2018-04-18T20:57:18.670Z,51.70
2018-04-18T20:59:46.883Z,47.70
2018-04-18T21:02:15.850Z,49.30
2018-04-18T21:04:44.082Z,49.80
2018-04-18T21:07:12.284Z,53.10
2018-04-18T21:09:40.521Z,53.50
2018-04-18T21:12:08.737Z,46.80
2018-04-18T21:14:36.962Z,54.60
2018-04-18T21:17:05.199Z,52.90
2018-04-18T21:19:33.375Z,51.50
2018-04-18T21:22:01.684Z,52.40
2018-04-18T21:24:29.903Z,52.90
2018-04-18T21:26:58.104Z,52.90
2018-04-18T21:29:26.307Z,53.00
2018-04-18T21:31:54.682Z,50.80
2018-04-18T21:34:23.675Z,52.70
2018-04-18T21:36:52.642Z,52.40
2018-04-18T21:39:20.884Z,52.40
2018-04-18T21:41:49.099Z,52.70
2018-04-18T21:44:17.316Z,52.00
2018-04-18T21:46:45.542Z,51.60
2018-04-18T21:49:13.782Z,51.40
2018-04-18T21:51:41.990Z,52.10
2018-04-18T21:54:10.233Z,51.20
2018-04-18T21:56:38.478Z,51.40
2018-04-18T21:59:06.714Z,51.00
2018-04-18T22:01:34.910Z,50.70
2018-04-18T22:04:03.125Z,50.80
2018-04-18T22:06:31.357Z,50.50
2018-04-18T22:09:00.357Z,50.40
2018-04-18T22:11:29.309Z,50.40
2018-04-18T22:13:57.724Z,50.40
2018-04-18T22:16:25.915Z,50.40
2018-04-18T22:18:54.125Z,50.40
2018-04-18T22:21:22.331Z,50.30
2018-04-18T22:23:50.551Z,50.00
2018-04-18T22:26:18.764Z,50.00
2018-04-18T22:28:47.044Z,49.90
2018-04-18T22:31:15.267Z,49.90
2018-04-18T22:33:43.458Z,49.90
2018-04-18T22:36:11.670Z,49.80
2018-04-18T22:38:39.870Z,49.60
2018-04-18T22:41:08.067Z,49.70
2018-04-18T22:43:36.293Z,49.70
2018-04-18T22:46:04.478Z,49.50
2018-04-18T22:48:32.718Z,49.50
2018-04-18T22:51:00.899Z,49.10
2018-04-18T22:53:29.099Z,49.20
2018-04-18T22:55:57.337Z,49.10
2018-04-18T22:58:25.538Z,49.10
2018-04-18T23:00:53.799Z,48.90
2018-04-18T23:03:22.874Z,48.60
2018-04-18T23:05:51.051Z,48.50
2018-04-18T23:08:19.277Z,48.60
2018-04-18T23:10:47.483Z,48.40
2018-04-18T23:13:15.829Z,48.30
2018-04-18T23:15:44.119Z,48.40
2018-04-18T23:18:12.314Z,48.20
2018-04-18T23:20:40.515Z,48.10
2018-04-18T23:23:09.494Z,48.30
2018-04-18T23:25:37.730Z,48.20
2018-04-18T23:28:05.928Z,48.00
2018-04-18T23:30:34.127Z,48.00
2018-04-18T23:33:02.351Z,47.90
2018-04-18T23:35:30.552Z,47.60
2018-04-18T23:37:58.766Z,47.50
2018-04-18T23:40:26.985Z,47.70
2018-04-18T23:42:55.190Z,47.60
2018-04-18T23:45:23.452Z,47.60
2018-04-18T23:47:51.671Z,47.40
2018-04-18T23:50:19.897Z,47.40
2018-04-18T23:52:48.105Z,47.20
2018-04-18T23:55:17.075Z,47.20
2018-04-18T23:57:45.279Z,47.10
